sensor_id;sensor_type;location;lat;lon;timestamp;P1;durP1;ratioP1;P2;durP2;ratioP2
10250;SDS011;5170;58.692;12.478;2023-01-15T00:00:43;0.30;;;0.00;;
10250;SDS011;5170;58.692;12.478;2023-01-15T00:03:31;0.30;;;0.00;;
10250;SDS011;5170;58.692;12.478;2023-01-15T00:06:20;0.30;;;0.00;;
10250;SDS011;5170;58.692;12.478;2023-01-15T00:09:10;0.40;;;0.00;;
10250;SDS011;5170;58.692;12.478;2023-01-15T00:11:59;0.30;;;0.00;;
10250;SDS011;5170;58.692;12.478;2023-01-15T00:14:47;0.30;;;0.00;;
10250;SDS011;5170;58.692;12.478;2023-01-15T00:17:34;0.30;;;0.03;;
10250;SDS011;5170;58.692;12.478;2023-01-15T00:20:22;0.30;;;0.00;;
10250;SDS011;5170;58.692;12.478;2023-01-15T00:23:11;0.30;;;0.00;;
10250;SDS011;5170;58.692;12.478;2023-01-15T00:26:20;0.30;;;0.00;;
10250;SDS011;5170;58.692;12.478;2023-01-15T00:29:25;0.30;;;0.00;;
10250;SDS011;5170;58.692;12.478;2023-01-15T00:32:13;0.30;;;0.00;;
10250;SDS011;5170;58.692;12.478;2023-01-15T00:35:01;0.30;;;0.00;;
10250;SDS011;5170;58.692;12.478;2023-01-15T00:37:49;0.30;;;0.00;;
10250;SDS011;5170;58.692;12.478;2023-01-15T00:40:38;0.30;;;0.00;;
10250;SDS011;5170;58.692;12.478;2023-01-15T00:43:26;0.30;;;0.00;;
10250;SDS011;5170;58.692;12.478;2023-01-15T00:46:13;0.30;;;0.00;;
10250;SDS011;5170;58.692;12.478;2023-01-15T00:49:01;0.30;;;0.00;;
10250;SDS011;5170;58.692;12.478;2023-01-15T00:51:48;0.30;;;0.00;;
10250;SDS011;5170;58.692;12.478;2023-01-15T00:54:36;0.30;;;0.00;;
10250;SDS011;5170;58.692;12.478;2023-01-15T00:57:25;0.30;;;0.00;;
10250;SDS011;5170;58.692;12.478;2023-01-15T01:00:13;0.30;;;0.00;;
10250;SDS011;5170;58.692;12.478;2023-01-15T01:03:01;0.30;;;0.00;;
10250;SDS011;5170;58.692;12.478;2023-01-15T01:05:48;0.30;;;0.00;;
10250;SDS011;5170;58.692;12.478;2023-01-15T01:08:36;0.30;;;0.00;;
10250;SDS011;5170;58.692;12.478;2023-01-15T01:11:24;0.30;;;0.00;;
10250;SDS011;5170;58.692;12.478;2023-01-15T01:14:14;0.40;;;0.10;;
10250;SDS011;5170;58.692;12.478;2023-01-15T01:17:01;0.30;;;0.00;;
10250;SDS011;5170;58.692;12.478;2023-01-15T01:19:49;0.30;;;0.00;;
10250;SDS011;5170;58.692;12.478;2023-01-15T01:22:37;0.30;;;0.10;;
10250;SDS011;5170;58.692;12.478;2023-01-15T01:25:24;0.30;;;0.00;;
10250;SDS011;5170;58.692;12.478;2023-01-15T01:28:12;0.30;;;0.03;;
10250;SDS011;5170;58.692;12.478;2023-01-15T01:31:04;0.30;;;0.10;;
10250;SDS011;5170;58.692;12.478;2023-01-15T01:33:52;0.30;;;0.10;;
10250;SDS011;5170;58.692;12.478;2023-01-15T01:36:40;0.30;;;0.00;;
10250;SDS011;5170;58.692;12.478;2023-01-15T01:39:28;0.30;;;0.00;;
10250;SDS011;5170;58.692;12.478;2023-01-15T01:42:16;0.30;;;0.13;;
10250;SDS011;5170;58.692;12.478;2023-01-15T01:45:11;0.30;;;0.10;;
10250;SDS011;5170;58.692;12.478;2023-01-15T01:48:05;0.30;;;0.20;;
10250;SDS011;5170;58.692;12.478;2023-01-15T01:50:53;0.30;;;0.10;;
10250;SDS011;5170;58.692;12.478;2023-01-15T01:53:42;0.30;;;0.00;;
10250;SDS011;5170;58.692;12.478;2023-01-15T01:56:29;0.30;;;0.00;;
10250;SDS011;5170;58.692;12.478;2023-01-15T01:59:20;0.30;;;0.10;;
10250;SDS011;5170;58.692;12.478;2023-01-15T02:02:08;0.30;;;0.00;;
10250;SDS011;5170;58.692;12.478;2023-01-15T02:04:57;0.40;;;0.10;;
10250;SDS011;5170;58.692;12.478;2023-01-15T02:07:44;0.30;;;0.00;;
10250;SDS011;5170;58.692;12.478;2023-01-15T02:10:32;0.30;;;0.00;;
10250;SDS011;5170;58.692;12.478;2023-01-15T02:13:20;0.30;;;0.00;;
10250;SDS011;5170;58.692;12.478;2023-01-15T02:16:12;0.33;;;0.13;;
10250;SDS011;5170;58.692;12.478;2023-01-15T02:19:04;0.30;;;0.00;;
10250;SDS011;5170;58.692;12.478;2023-01-15T02:22:00;0.40;;;0.10;;
10250;SDS011;5170;58.692;12.478;2023-01-15T02:24:53;1.80;;;0.20;;
10250;SDS011;5170;58.692;12.478;2023-01-15T02:27:43;1.17;;;0.10;;
10250;SDS011;5170;58.692;12.478;2023-01-15T02:30:33;0.37;;;0.10;;
10250;SDS011;5170;58.692;12.478;2023-01-15T02:33:23;0.70;;;0.20;;
10250;SDS011;5170;58.692;12.478;2023-01-15T02:36:13;0.40;;;0.00;;
10250;SDS011;5170;58.692;12.478;2023-01-15T02:39:03;1.77;;;0.30;;
10250;SDS011;5170;58.692;12.478;2023-01-15T02:41:51;1.20;;;0.30;;
10250;SDS011;5170;58.692;12.478;2023-01-15T02:44:43;0.30;;;0.10;;
10250;SDS011;5170;58.692;12.478;2023-01-15T02:47:32;0.80;;;0.30;;
10250;SDS011;5170;58.692;12.478;2023-01-15T02:50:22;0.50;;;0.23;;
10250;SDS011;5170;58.692;12.478;2023-01-15T02:53:13;0.50;;;0.23;;
10250;SDS011;5170;58.692;12.478;2023-01-15T02:56:03;0.50;;;0.10;;
10250;SDS011;5170;58.692;12.478;2023-01-15T02:58:53;0.30;;;0.20;;
10250;SDS011;5170;58.692;12.478;2023-01-15T03:01:45;0.97;;;0.30;;
10250;SDS011;5170;58.692;12.478;2023-01-15T03:04:36;1.23;;;0.37;;
10250;SDS011;5170;58.692;12.478;2023-01-15T03:07:25;1.17;;;0.50;;
10250;SDS011;5170;58.692;12.478;2023-01-15T03:10:14;0.90;;;0.73;;
10250;SDS011;5170;58.692;12.478;2023-01-15T03:13:02;2.50;;;0.50;;
10250;SDS011;5170;58.692;12.478;2023-01-15T03:15:55;2.00;;;0.50;;
10250;SDS011;5170;58.692;12.478;2023-01-15T03:19:12;1.57;;;0.40;;
10250;SDS011;5170;58.692;12.478;2023-01-15T03:22:04;0.63;;;0.30;;
10250;SDS011;5170;58.692;12.478;2023-01-15T03:24:53;1.27;;;0.53;;
10250;SDS011;5170;58.692;12.478;2023-01-15T03:27:43;1.07;;;0.37;;
10250;SDS011;5170;58.692;12.478;2023-01-15T03:30:31;1.40;;;0.30;;
10250;SDS011;5170;58.692;12.478;2023-01-15T03:33:19;1.23;;;0.27;;
10250;SDS011;5170;58.692;12.478;2023-01-15T03:36:09;1.20;;;0.40;;
10250;SDS011;5170;58.692;12.478;2023-01-15T03:38:56;2.13;;;0.40;;
10250;SDS011;5170;58.692;12.478;2023-01-15T03:41:47;1.03;;;0.33;;
10250;SDS011;5170;58.692;12.478;2023-01-15T03:44:37;2.97;;;0.93;;
10250;SDS011;5170;58.692;12.478;2023-01-15T03:47:29;0.83;;;0.30;;
10250;SDS011;5170;58.692;12.478;2023-01-15T03:50:21;1.40;;;0.40;;
10250;SDS011;5170;58.692;12.478;2023-01-15T03:53:14;0.93;;;0.40;;
10250;SDS011;5170;58.692;12.478;2023-01-15T03:56:02;3.20;;;0.60;;
10250;SDS011;5170;58.692;12.478;2023-01-15T03:58:52;0.57;;;0.37;;
10250;SDS011;5170;58.692;12.478;2023-01-15T04:01:42;0.43;;;0.20;;
10250;SDS011;5170;58.692;12.478;2023-01-15T04:04:31;1.27;;;0.30;;
10250;SDS011;5170;58.692;12.478;2023-01-15T04:07:19;1.07;;;0.43;;
10250;SDS011;5170;58.692;12.478;2023-01-15T04:10:09;1.93;;;0.43;;
10250;SDS011;5170;58.692;12.478;2023-01-15T04:12:57;0.40;;;0.10;;
10250;SDS011;5170;58.692;12.478;2023-01-15T04:15:45;1.17;;;0.20;;
10250;SDS011;5170;58.692;12.478;2023-01-15T04:18:32;2.23;;;0.30;;
10250;SDS011;5170;58.692;12.478;2023-01-15T04:21:20;0.50;;;0.00;;
10250;SDS011;5170;58.692;12.478;2023-01-15T04:24:08;1.23;;;0.20;;
10250;SDS011;5170;58.692;12.478;2023-01-15T04:26:57;0.60;;;0.20;;
10250;SDS011;5170;58.692;12.478;2023-01-15T04:29:44;0.33;;;0.03;;
10250;SDS011;5170;58.692;12.478;2023-01-15T04:32:32;0.67;;;0.27;;
10250;SDS011;5170;58.692;12.478;2023-01-15T04:35:19;2.20;;;0.50;;
10250;SDS011;5170;58.692;12.478;2023-01-15T04:38:07;0.47;;;0.20;;
10250;SDS011;5170;58.692;12.478;2023-01-15T04:40:55;0.70;;;0.30;;
10250;SDS011;5170;58.692;12.478;2023-01-15T04:44:05;0.37;;;0.10;;
10250;SDS011;5170;58.692;12.478;2023-01-15T04:46:53;0.70;;;0.10;;
10250;SDS011;5170;58.692;12.478;2023-01-15T04:49:41;0.57;;;0.37;;
10250;SDS011;5170;58.692;12.478;2023-01-15T04:52:29;0.93;;;0.33;;
10250;SDS011;5170;58.692;12.478;2023-01-15T04:55:17;0.77;;;0.30;;
10250;SDS011;5170;58.692;12.478;2023-01-15T04:58:04;2.57;;;0.47;;
10250;SDS011;5170;58.692;12.478;2023-01-15T05:00:53;1.40;;;0.40;;
10250;SDS011;5170;58.692;12.478;2023-01-15T05:03:41;0.37;;;0.20;;
10250;SDS011;5170;58.692;12.478;2023-01-15T05:06:29;0.87;;;0.23;;
10250;SDS011;5170;58.692;12.478;2023-01-15T05:09:17;0.47;;;0.30;;
10250;SDS011;5170;58.692;12.478;2023-01-15T05:12:05;1.07;;;0.50;;
10250;SDS011;5170;58.692;12.478;2023-01-15T05:14:52;1.43;;;0.50;;
10250;SDS011;5170;58.692;12.478;2023-01-15T05:17:41;1.00;;;0.50;;
10250;SDS011;5170;58.692;12.478;2023-01-15T05:20:29;1.57;;;0.60;;
10250;SDS011;5170;58.692;12.478;2023-01-15T05:23:17;2.00;;;0.67;;
10250;SDS011;5170;58.692;12.478;2023-01-15T05:26:04;2.10;;;0.53;;
10250;SDS011;5170;58.692;12.478;2023-01-15T05:28:52;1.40;;;0.40;;
10250;SDS011;5170;58.692;12.478;2023-01-15T05:31:40;0.93;;;0.40;;
10250;SDS011;5170;58.692;12.478;2023-01-15T05:34:30;1.43;;;0.60;;
10250;SDS011;5170;58.692;12.478;2023-01-15T05:37:18;2.00;;;0.70;;
10250;SDS011;5170;58.692;12.478;2023-01-15T05:40:06;1.00;;;0.70;;
10250;SDS011;5170;58.692;12.478;2023-01-15T05:42:54;0.70;;;0.50;;
10250;SDS011;5170;58.692;12.478;2023-01-15T05:45:42;1.97;;;0.60;;
10250;SDS011;5170;58.692;12.478;2023-01-15T05:48:29;2.53;;;0.67;;
10250;SDS011;5170;58.692;12.478;2023-01-15T05:51:18;1.70;;;0.57;;
10250;SDS011;5170;58.692;12.478;2023-01-15T05:54:07;1.70;;;0.80;;
10250;SDS011;5170;58.692;12.478;2023-01-15T05:56:55;1.23;;;0.77;;
10250;SDS011;5170;58.692;12.478;2023-01-15T05:59:43;0.50;;;0.20;;
10250;SDS011;5170;58.692;12.478;2023-01-15T06:02:30;1.53;;;0.60;;
10250;SDS011;5170;58.692;12.478;2023-01-15T06:05:18;1.03;;;0.50;;
10250;SDS011;5170;58.692;12.478;2023-01-15T06:08:07;2.77;;;0.87;;
10250;SDS011;5170;58.692;12.478;2023-01-15T06:10:55;1.70;;;0.63;;
10250;SDS011;5170;58.692;12.478;2023-01-15T06:13:42;1.83;;;0.70;;
10250;SDS011;5170;58.692;12.478;2023-01-15T06:16:30;1.70;;;0.43;;
10250;SDS011;5170;58.692;12.478;2023-01-15T06:19:18;1.80;;;0.50;;
10250;SDS011;5170;58.692;12.478;2023-01-15T06:22:06;3.10;;;0.90;;
10250;SDS011;5170;58.692;12.478;2023-01-15T06:24:55;1.60;;;0.43;;
10250;SDS011;5170;58.692;12.478;2023-01-15T06:27:42;2.50;;;0.80;;
10250;SDS011;5170;58.692;12.478;2023-01-15T06:30:30;1.80;;;0.40;;
10250;SDS011;5170;58.692;12.478;2023-01-15T06:33:17;3.03;;;0.70;;
10250;SDS011;5170;58.692;12.478;2023-01-15T06:36:05;2.73;;;0.50;;
10250;SDS011;5170;58.692;12.478;2023-01-15T06:38:54;1.60;;;0.57;;
10250;SDS011;5170;58.692;12.478;2023-01-15T06:41:43;2.40;;;1.30;;
10250;SDS011;5170;58.692;12.478;2023-01-15T06:44:48;2.13;;;0.50;;
10250;SDS011;5170;58.692;12.478;2023-01-15T06:47:53;2.50;;;0.67;;
10250;SDS011;5170;58.692;12.478;2023-01-15T06:50:41;4.37;;;1.10;;
10250;SDS011;5170;58.692;12.478;2023-01-15T06:53:29;1.50;;;0.60;;
10250;SDS011;5170;58.692;12.478;2023-01-15T06:56:16;2.70;;;0.60;;
10250;SDS011;5170;58.692;12.478;2023-01-15T06:59:06;0.60;;;0.30;;
10250;SDS011;5170;58.692;12.478;2023-01-15T07:01:53;2.17;;;0.50;;
10250;SDS011;5170;58.692;12.478;2023-01-15T07:04:41;1.60;;;0.57;;
10250;SDS011;5170;58.692;12.478;2023-01-15T07:07:29;2.63;;;0.43;;
10250;SDS011;5170;58.692;12.478;2023-01-15T07:10:16;1.47;;;0.70;;
10250;SDS011;5170;58.692;12.478;2023-01-15T07:13:04;3.47;;;0.70;;
10250;SDS011;5170;58.692;12.478;2023-01-15T07:15:53;2.73;;;0.63;;
10250;SDS011;5170;58.692;12.478;2023-01-15T07:18:41;1.63;;;0.50;;
10250;SDS011;5170;58.692;12.478;2023-01-15T07:21:29;2.10;;;0.50;;
10250;SDS011;5170;58.692;12.478;2023-01-15T07:24:16;1.30;;;0.77;;
10250;SDS011;5170;58.692;12.478;2023-01-15T07:27:04;2.97;;;0.63;;
10250;SDS011;5170;58.692;12.478;2023-01-15T07:29:52;0.93;;;0.70;;
10250;SDS011;5170;58.692;12.478;2023-01-15T07:32:41;2.17;;;0.60;;
10250;SDS011;5170;58.692;12.478;2023-01-15T07:35:28;2.03;;;0.97;;
10250;SDS011;5170;58.692;12.478;2023-01-15T07:38:16;3.17;;;1.20;;
10250;SDS011;5170;58.692;12.478;2023-01-15T07:41:04;4.77;;;0.90;;
10250;SDS011;5170;58.692;12.478;2023-01-15T07:44:09;4.23;;;0.73;;
10250;SDS011;5170;58.692;12.478;2023-01-15T07:47:16;8.20;;;2.00;;
10250;SDS011;5170;58.692;12.478;2023-01-15T07:50:24;3.10;;;0.90;;
10250;SDS011;5170;58.692;12.478;2023-01-15T07:53:11;1.27;;;0.40;;
10250;SDS011;5170;58.692;12.478;2023-01-15T07:55:59;3.70;;;0.93;;
10250;SDS011;5170;58.692;12.478;2023-01-15T07:58:47;3.63;;;0.87;;
10250;SDS011;5170;58.692;12.478;2023-01-15T08:01:35;2.90;;;0.80;;
10250;SDS011;5170;58.692;12.478;2023-01-15T08:04:22;3.27;;;1.00;;
10250;SDS011;5170;58.692;12.478;2023-01-15T08:07:11;5.40;;;1.07;;
10250;SDS011;5170;58.692;12.478;2023-01-15T08:09:59;3.57;;;0.73;;
10250;SDS011;5170;58.692;12.478;2023-01-15T08:12:48;3.30;;;0.80;;
10250;SDS011;5170;58.692;12.478;2023-01-15T08:15:53;4.97;;;1.10;;
10250;SDS011;5170;58.692;12.478;2023-01-15T08:18:41;4.00;;;0.80;;
10250;SDS011;5170;58.692;12.478;2023-01-15T08:21:30;3.63;;;1.00;;
10250;SDS011;5170;58.692;12.478;2023-01-15T08:24:19;1.03;;;0.80;;
10250;SDS011;5170;58.692;12.478;2023-01-15T08:27:06;4.77;;;0.90;;
10250;SDS011;5170;58.692;12.478;2023-01-15T08:29:54;5.00;;;0.97;;
10250;SDS011;5170;58.692;12.478;2023-01-15T08:32:42;6.70;;;1.60;;
10250;SDS011;5170;58.692;12.478;2023-01-15T08:35:30;3.13;;;0.83;;
10250;SDS011;5170;58.692;12.478;2023-01-15T08:38:18;3.90;;;0.70;;
10250;SDS011;5170;58.692;12.478;2023-01-15T08:41:07;3.20;;;0.80;;
10250;SDS011;5170;58.692;12.478;2023-01-15T08:43:55;3.23;;;1.17;;
10250;SDS011;5170;58.692;12.478;2023-01-15T08:46:42;1.40;;;0.50;;
10250;SDS011;5170;58.692;12.478;2023-01-15T08:49:30;3.70;;;1.13;;
10250;SDS011;5170;58.692;12.478;2023-01-15T08:52:18;2.80;;;0.77;;
10250;SDS011;5170;58.692;12.478;2023-01-15T08:55:06;10.47;;;1.33;;
10250;SDS011;5170;58.692;12.478;2023-01-15T08:57:55;7.97;;;1.17;;
10250;SDS011;5170;58.692;12.478;2023-01-15T09:00:43;4.77;;;0.93;;
10250;SDS011;5170;58.692;12.478;2023-01-15T09:03:33;2.53;;;1.10;;
10250;SDS011;5170;58.692;12.478;2023-01-15T09:06:21;6.23;;;1.00;;
10250;SDS011;5170;58.692;12.478;2023-01-15T09:09:09;5.30;;;1.20;;
10250;SDS011;5170;58.692;12.478;2023-01-15T09:11:57;2.30;;;1.00;;
10250;SDS011;5170;58.692;12.478;2023-01-15T09:14:46;3.80;;;1.07;;
10250;SDS011;5170;58.692;12.478;2023-01-15T09:17:34;3.43;;;1.00;;
10250;SDS011;5170;58.692;12.478;2023-01-15T09:20:25;3.73;;;0.93;;
10250;SDS011;5170;58.692;12.478;2023-01-15T09:23:12;1.90;;;0.57;;
10250;SDS011;5170;58.692;12.478;2023-01-15T09:26:01;2.13;;;0.70;;
10250;SDS011;5170;58.692;12.478;2023-01-15T09:28:50;1.87;;;0.47;;
10250;SDS011;5170;58.692;12.478;2023-01-15T09:31:39;2.90;;;1.13;;
10250;SDS011;5170;58.692;12.478;2023-01-15T09:34:27;4.87;;;1.30;;
10250;SDS011;5170;58.692;12.478;2023-01-15T09:37:15;1.07;;;0.50;;
10250;SDS011;5170;58.692;12.478;2023-01-15T09:40:03;1.57;;;0.77;;
10250;SDS011;5170;58.692;12.478;2023-01-15T09:42:53;2.93;;;0.60;;
10250;SDS011;5170;58.692;12.478;2023-01-15T09:45:42;1.20;;;0.40;;
10250;SDS011;5170;58.692;12.478;2023-01-15T09:48:35;0.77;;;0.30;;
10250;SDS011;5170;58.692;12.478;2023-01-15T09:51:27;1.87;;;0.50;;
10250;SDS011;5170;58.692;12.478;2023-01-15T09:54:19;1.03;;;0.30;;
10250;SDS011;5170;58.692;12.478;2023-01-15T09:57:09;1.17;;;0.50;;
10250;SDS011;5170;58.692;12.478;2023-01-15T09:59:57;2.70;;;0.67;;
10250;SDS011;5170;58.692;12.478;2023-01-15T10:02:48;2.87;;;0.70;;
10250;SDS011;5170;58.692;12.478;2023-01-15T10:05:40;0.50;;;0.23;;
10250;SDS011;5170;58.692;12.478;2023-01-15T10:08:30;2.47;;;0.80;;
10250;SDS011;5170;58.692;12.478;2023-01-15T10:11:26;1.00;;;0.60;;
10250;SDS011;5170;58.692;12.478;2023-01-15T10:14:36;2.00;;;0.60;;
10250;SDS011;5170;58.692;12.478;2023-01-15T10:17:27;1.67;;;0.40;;
10250;SDS011;5170;58.692;12.478;2023-01-15T10:20:16;2.17;;;0.70;;
10250;SDS011;5170;58.692;12.478;2023-01-15T10:23:08;3.03;;;0.70;;
10250;SDS011;5170;58.692;12.478;2023-01-15T10:26:01;4.37;;;0.93;;
10250;SDS011;5170;58.692;12.478;2023-01-15T10:29:00;2.57;;;0.60;;
10250;SDS011;5170;58.692;12.478;2023-01-15T10:31:50;3.70;;;0.93;;
10250;SDS011;5170;58.692;12.478;2023-01-15T10:34:53;1.63;;;0.50;;
10250;SDS011;5170;58.692;12.478;2023-01-15T10:37:46;1.03;;;0.50;;
10250;SDS011;5170;58.692;12.478;2023-01-15T10:43:44;2.13;;;0.73;;
10250;SDS011;5170;58.692;12.478;2023-01-15T10:46:35;2.67;;;0.50;;
10250;SDS011;5170;58.692;12.478;2023-01-15T10:49:25;0.97;;;0.57;;
10250;SDS011;5170;58.692;12.478;2023-01-15T10:52:17;1.33;;;0.70;;
10250;SDS011;5170;58.692;12.478;2023-01-15T10:55:12;1.70;;;0.67;;
10250;SDS011;5170;58.692;12.478;2023-01-15T10:58:05;1.50;;;0.80;;
10250;SDS011;5170;58.692;12.478;2023-01-15T11:01:02;4.00;;;0.70;;
10250;SDS011;5170;58.692;12.478;2023-01-15T11:03:50;2.13;;;0.70;;
10250;SDS011;5170;58.692;12.478;2023-01-15T11:06:38;4.53;;;1.00;;
10250;SDS011;5170;58.692;12.478;2023-01-15T11:09:26;1.17;;;0.47;;
10250;SDS011;5170;58.692;12.478;2023-01-15T11:12:19;5.27;;;1.10;;
10250;SDS011;5170;58.692;12.478;2023-01-15T11:15:25;2.73;;;1.13;;
10250;SDS011;5170;58.692;12.478;2023-01-15T11:18:32;3.20;;;0.77;;
10250;SDS011;5170;58.692;12.478;2023-01-15T11:21:39;3.70;;;0.50;;
10250;SDS011;5170;58.692;12.478;2023-01-15T11:24:27;2.57;;;0.80;;
10250;SDS011;5170;58.692;12.478;2023-01-15T11:27:16;2.33;;;0.80;;
10250;SDS011;5170;58.692;12.478;2023-01-15T11:30:05;1.80;;;0.67;;
10250;SDS011;5170;58.692;12.478;2023-01-15T11:32:53;3.63;;;0.73;;
10250;SDS011;5170;58.692;12.478;2023-01-15T11:35:49;2.97;;;0.77;;
10250;SDS011;5170;58.692;12.478;2023-01-15T11:38:41;1.23;;;0.53;;
10250;SDS011;5170;58.692;12.478;2023-01-15T11:41:30;3.60;;;0.53;;
10250;SDS011;5170;58.692;12.478;2023-01-15T11:44:32;1.73;;;0.60;;
10250;SDS011;5170;58.692;12.478;2023-01-15T11:47:36;3.77;;;0.90;;
10250;SDS011;5170;58.692;12.478;2023-01-15T11:50:46;4.17;;;1.13;;
10250;SDS011;5170;58.692;12.478;2023-01-15T11:53:39;3.30;;;1.23;;
10250;SDS011;5170;58.692;12.478;2023-01-15T11:56:27;5.90;;;1.50;;
10250;SDS011;5170;58.692;12.478;2023-01-15T11:59:17;3.90;;;0.97;;
10250;SDS011;5170;58.692;12.478;2023-01-15T12:02:10;3.70;;;1.23;;
10250;SDS011;5170;58.692;12.478;2023-01-15T12:05:01;6.90;;;1.30;;
10250;SDS011;5170;58.692;12.478;2023-01-15T12:07:51;4.57;;;1.10;;
10250;SDS011;5170;58.692;12.478;2023-01-15T12:10:42;6.80;;;1.37;;
10250;SDS011;5170;58.692;12.478;2023-01-15T12:13:50;6.30;;;1.37;;
10250;SDS011;5170;58.692;12.478;2023-01-15T12:16:44;6.50;;;1.10;;
10250;SDS011;5170;58.692;12.478;2023-01-15T12:19:36;5.60;;;1.47;;
10250;SDS011;5170;58.692;12.478;2023-01-15T12:22:32;9.70;;;1.33;;
10250;SDS011;5170;58.692;12.478;2023-01-15T12:25:35;8.50;;;1.40;;
10250;SDS011;5170;58.692;12.478;2023-01-15T12:28:26;3.97;;;1.17;;
10250;SDS011;5170;58.692;12.478;2023-01-15T12:31:16;7.17;;;1.33;;
10250;SDS011;5170;58.692;12.478;2023-01-15T12:34:09;5.97;;;1.37;;
10250;SDS011;5170;58.692;12.478;2023-01-15T12:37:01;11.47;;;1.60;;
10250;SDS011;5170;58.692;12.478;2023-01-15T12:39:52;7.37;;;1.27;;
10250;SDS011;5170;58.692;12.478;2023-01-15T12:42:41;10.63;;;2.07;;
10250;SDS011;5170;58.692;12.478;2023-01-15T12:45:50;5.43;;;1.37;;
10250;SDS011;5170;58.692;12.478;2023-01-15T12:48:39;5.30;;;1.20;;
10250;SDS011;5170;58.692;12.478;2023-01-15T12:51:30;10.03;;;1.60;;
10250;SDS011;5170;58.692;12.478;2023-01-15T12:54:21;8.63;;;1.40;;
10250;SDS011;5170;58.692;12.478;2023-01-15T12:57:12;4.23;;;0.93;;
10250;SDS011;5170;58.692;12.478;2023-01-15T13:00:03;3.70;;;0.93;;
10250;SDS011;5170;58.692;12.478;2023-01-15T13:03:04;6.60;;;1.23;;
10250;SDS011;5170;58.692;12.478;2023-01-15T13:05:55;10.90;;;1.53;;
10250;SDS011;5170;58.692;12.478;2023-01-15T13:08:47;8.23;;;1.57;;
10250;SDS011;5170;58.692;12.478;2023-01-15T13:11:37;4.63;;;1.17;;
10250;SDS011;5170;58.692;12.478;2023-01-15T13:14:24;7.73;;;1.10;;
10250;SDS011;5170;58.692;12.478;2023-01-15T13:17:15;5.83;;;1.30;;
10250;SDS011;5170;58.692;12.478;2023-01-15T13:20:13;3.43;;;1.00;;
10250;SDS011;5170;58.692;12.478;2023-01-15T13:23:07;3.40;;;0.87;;
10250;SDS011;5170;58.692;12.478;2023-01-15T13:26:04;4.43;;;0.80;;
10250;SDS011;5170;58.692;12.478;2023-01-15T13:28:57;7.33;;;1.07;;
10250;SDS011;5170;58.692;12.478;2023-01-15T13:31:53;6.90;;;1.43;;
10250;SDS011;5170;58.692;12.478;2023-01-15T13:34:43;7.90;;;1.47;;
10250;SDS011;5170;58.692;12.478;2023-01-15T13:37:35;3.70;;;1.90;;
10250;SDS011;5170;58.692;12.478;2023-01-15T13:40:25;5.43;;;1.00;;
10250;SDS011;5170;58.692;12.478;2023-01-15T13:43:24;7.90;;;1.40;;
10250;SDS011;5170;58.692;12.478;2023-01-15T13:46:13;5.47;;;1.30;;
10250;SDS011;5170;58.692;12.478;2023-01-15T13:49:13;7.87;;;1.70;;
10250;SDS011;5170;58.692;12.478;2023-01-15T13:52:02;3.90;;;1.40;;
10250;SDS011;5170;58.692;12.478;2023-01-15T13:54:52;5.37;;;1.43;;
10250;SDS011;5170;58.692;12.478;2023-01-15T13:57:41;5.83;;;0.93;;
10250;SDS011;5170;58.692;12.478;2023-01-15T14:00:30;4.80;;;0.90;;
10250;SDS011;5170;58.692;12.478;2023-01-15T14:03:24;2.03;;;0.80;;
10250;SDS011;5170;58.692;12.478;2023-01-15T14:06:12;3.47;;;0.83;;
10250;SDS011;5170;58.692;12.478;2023-01-15T14:09:00;2.57;;;1.00;;
10250;SDS011;5170;58.692;12.478;2023-01-15T14:11:57;3.83;;;0.70;;
10250;SDS011;5170;58.692;12.478;2023-01-15T14:14:58;4.87;;;1.10;;
10250;SDS011;5170;58.692;12.478;2023-01-15T14:20:54;13.97;;;2.03;;
10250;SDS011;5170;58.692;12.478;2023-01-15T14:23:52;5.17;;;0.87;;
10250;SDS011;5170;58.692;12.478;2023-01-15T14:26:47;6.43;;;0.97;;
10250;SDS011;5170;58.692;12.478;2023-01-15T14:29:44;4.47;;;0.80;;
10250;SDS011;5170;58.692;12.478;2023-01-15T14:32:47;8.90;;;2.00;;
10250;SDS011;5170;58.692;12.478;2023-01-15T14:35:39;3.43;;;1.10;;
10250;SDS011;5170;58.692;12.478;2023-01-15T14:38:29;5.53;;;1.00;;
10250;SDS011;5170;58.692;12.478;2023-01-15T14:41:22;13.50;;;1.90;;
10250;SDS011;5170;58.692;12.478;2023-01-15T14:44:11;4.27;;;1.77;;
10250;SDS011;5170;58.692;12.478;2023-01-15T14:47:01;7.37;;;1.43;;
10250;SDS011;5170;58.692;12.478;2023-01-15T14:49:58;8.90;;;1.67;;
10250;SDS011;5170;58.692;12.478;2023-01-15T14:52:46;4.30;;;1.17;;
10250;SDS011;5170;58.692;12.478;2023-01-15T14:55:36;7.80;;;1.37;;
10250;SDS011;5170;58.692;12.478;2023-01-15T14:58:28;5.70;;;1.00;;
10250;SDS011;5170;58.692;12.478;2023-01-15T15:01:40;5.57;;;1.17;;
10250;SDS011;5170;58.692;12.478;2023-01-15T15:04:33;5.27;;;1.07;;
10250;SDS011;5170;58.692;12.478;2023-01-15T15:07:24;6.83;;;1.00;;
10250;SDS011;5170;58.692;12.478;2023-01-15T15:10:16;4.07;;;1.10;;
10250;SDS011;5170;58.692;12.478;2023-01-15T15:13:08;3.03;;;1.20;;
10250;SDS011;5170;58.692;12.478;2023-01-15T15:16:02;4.57;;;1.13;;
10250;SDS011;5170;58.692;12.478;2023-01-15T15:18:51;7.57;;;1.37;;
10250;SDS011;5170;58.692;12.478;2023-01-15T15:21:46;4.57;;;1.30;;
10250;SDS011;5170;58.692;12.478;2023-01-15T15:24:35;5.70;;;1.10;;
10250;SDS011;5170;58.692;12.478;2023-01-15T15:27:23;4.40;;;1.00;;
10250;SDS011;5170;58.692;12.478;2023-01-15T15:30:11;4.83;;;0.60;;
10250;SDS011;5170;58.692;12.478;2023-01-15T15:33:02;2.47;;;0.80;;
10250;SDS011;5170;58.692;12.478;2023-01-15T15:35:51;9.43;;;1.13;;
10250;SDS011;5170;58.692;12.478;2023-01-15T15:38:41;5.97;;;0.80;;
10250;SDS011;5170;58.692;12.478;2023-01-15T15:41:38;1.80;;;0.83;;
10250;SDS011;5170;58.692;12.478;2023-01-15T15:44:48;2.30;;;1.00;;
10250;SDS011;5170;58.692;12.478;2023-01-15T15:47:54;4.17;;;1.10;;
10250;SDS011;5170;58.692;12.478;2023-01-15T15:51:00;1.30;;;0.53;;
10250;SDS011;5170;58.692;12.478;2023-01-15T15:53:49;3.00;;;0.80;;
10250;SDS011;5170;58.692;12.478;2023-01-15T15:56:37;1.30;;;0.63;;
10250;SDS011;5170;58.692;12.478;2023-01-15T15:59:29;1.77;;;0.60;;
10250;SDS011;5170;58.692;12.478;2023-01-15T16:02:17;1.80;;;0.97;;
10250;SDS011;5170;58.692;12.478;2023-01-15T16:05:18;3.97;;;0.87;;
10250;SDS011;5170;58.692;12.478;2023-01-15T16:08:06;2.40;;;0.57;;
10250;SDS011;5170;58.692;12.478;2023-01-15T16:10:56;2.83;;;0.50;;
10250;SDS011;5170;58.692;12.478;2023-01-15T16:13:44;2.23;;;0.73;;
10250;SDS011;5170;58.692;12.478;2023-01-15T16:16:33;1.80;;;0.63;;
10250;SDS011;5170;58.692;12.478;2023-01-15T16:19:21;4.30;;;0.73;;
10250;SDS011;5170;58.692;12.478;2023-01-15T16:22:12;3.40;;;0.70;;
10250;SDS011;5170;58.692;12.478;2023-01-15T16:25:01;1.43;;;1.10;;
10250;SDS011;5170;58.692;12.478;2023-01-15T16:27:51;1.90;;;0.30;;
10250;SDS011;5170;58.692;12.478;2023-01-15T16:30:39;1.43;;;0.60;;
10250;SDS011;5170;58.692;12.478;2023-01-15T16:33:26;2.23;;;1.07;;
10250;SDS011;5170;58.692;12.478;2023-01-15T16:36:14;1.83;;;0.67;;
10250;SDS011;5170;58.692;12.478;2023-01-15T16:39:02;2.27;;;0.60;;
10250;SDS011;5170;58.692;12.478;2023-01-15T16:41:50;3.00;;;0.50;;
10250;SDS011;5170;58.692;12.478;2023-01-15T16:44:44;0.67;;;0.30;;
10250;SDS011;5170;58.692;12.478;2023-01-15T16:47:35;2.63;;;0.40;;
10250;SDS011;5170;58.692;12.478;2023-01-15T16:50:27;0.97;;;0.27;;
10250;SDS011;5170;58.692;12.478;2023-01-15T16:56:25;2.10;;;0.50;;
10250;SDS011;5170;58.692;12.478;2023-01-15T16:59:14;0.60;;;0.23;;
10250;SDS011;5170;58.692;12.478;2023-01-15T17:02:04;1.80;;;0.50;;
10250;SDS011;5170;58.692;12.478;2023-01-15T17:04:58;0.40;;;0.20;;
10250;SDS011;5170;58.692;12.478;2023-01-15T17:07:45;1.73;;;0.40;;
10250;SDS011;5170;58.692;12.478;2023-01-15T17:10:33;0.70;;;0.20;;
10250;SDS011;5170;58.692;12.478;2023-01-15T17:13:21;0.60;;;0.40;;
10250;SDS011;5170;58.692;12.478;2023-01-15T17:16:18;1.03;;;0.40;;
10250;SDS011;5170;58.692;12.478;2023-01-15T17:19:08;1.73;;;0.50;;